createdAt,value
2019-03-25T00:01:26.682Z,7.96
2019-03-25T00:03:56.577Z,7.74
2019-03-25T00:06:26.582Z,7.42
2019-03-25T00:09:04.767Z,7.36
2019-03-25T00:11:28.150Z,7.38
2019-03-25T00:13:58.112Z,7.45
2019-03-25T00:16:28.094Z,7.43
2019-03-25T00:18:57.993Z,7.48
2019-03-25T00:21:27.892Z,7.52
2019-03-25T00:23:57.791Z,7.53
2019-03-25T00:26:27.727Z,7.48
2019-03-25T00:28:57.673Z,7.44
2019-03-25T00:31:27.608Z,7.38
2019-03-25T00:33:57.690Z,7.17
2019-03-25T00:36:27.576Z,7.17
2019-03-25T00:38:57.444Z,7.08
2019-03-25T00:41:27.451Z,6.94
2019-03-25T00:43:57.395Z,6.75
2019-03-25T00:46:27.335Z,6.72
2019-03-25T00:48:57.224Z,6.72
2019-03-25T00:51:27.092Z,6.72
2019-03-25T00:53:57.088Z,6.76
2019-03-25T00:56:26.999Z,6.75
2019-03-25T00:58:56.915Z,6.82
2019-03-25T01:01:26.828Z,6.85
2019-03-25T01:03:56.730Z,6.85
2019-03-25T01:06:26.661Z,6.84
2019-03-25T01:08:56.609Z,6.77
2019-03-25T01:11:26.592Z,6.61
2019-03-25T01:13:58.050Z,6.57
2019-03-25T01:16:28.067Z,6.47
2019-03-25T01:18:57.977Z,6.60
2019-03-25T01:21:27.882Z,6.43
2019-03-25T01:23:57.783Z,6.31
2019-03-25T01:26:27.710Z,6.25
2019-03-25T01:28:57.637Z,6.24
2019-03-25T01:31:27.540Z,6.17
2019-03-25T01:33:57.454Z,6.27
2019-03-25T01:36:27.350Z,6.24
2019-03-25T01:38:57.230Z,6.16
2019-03-25T01:41:27.199Z,6.13
2019-03-25T01:43:57.132Z,5.92
2019-03-25T01:46:27.054Z,5.85
2019-03-25T01:48:57.013Z,5.73
2019-03-25T01:51:26.995Z,5.59
2019-03-25T01:53:56.914Z,5.44
2019-03-25T01:56:26.838Z,5.42
2019-03-25T01:58:56.757Z,5.35
2019-03-25T02:01:26.669Z,5.45
2019-03-25T02:03:56.714Z,5.40
2019-03-25T02:06:26.634Z,5.33
2019-03-25T02:08:56.527Z,5.33
2019-03-25T02:11:26.449Z,5.40
2019-03-25T02:13:56.339Z,5.54
2019-03-25T02:16:26.255Z,5.54
2019-03-25T02:18:56.186Z,5.37
2019-03-25T02:21:26.169Z,5.20
2019-03-25T02:23:56.062Z,5.27
2019-03-25T02:26:26.002Z,5.27
2019-03-25T02:28:55.901Z,5.21
2019-03-25T02:31:25.837Z,5.09
2019-03-25T02:33:55.716Z,4.98
2019-03-25T02:36:25.675Z,4.98
2019-03-25T02:38:55.565Z,3.86
2019-03-25T02:41:25.504Z,3.86
2019-03-25T02:43:55.539Z,5.04
2019-03-25T02:46:25.472Z,4.98
2019-03-25T02:48:55.397Z,5.12
2019-03-25T02:51:25.340Z,5.23
2019-03-25T02:53:55.336Z,5.23
2019-03-25T02:56:25.296Z,5.21
2019-03-25T02:58:55.242Z,5.11
2019-03-25T03:01:25.143Z,4.87
2019-03-25T03:03:55.036Z,4.87
2019-03-25T03:06:24.927Z,4.93
2019-03-25T03:08:54.856Z,5.03
2019-03-25T03:11:24.773Z,4.96
2019-03-25T03:13:54.711Z,5.09
2019-03-25T03:16:24.618Z,5.18
2019-03-25T03:18:54.527Z,5.20
2019-03-25T03:21:24.428Z,5.27
2019-03-25T03:23:54.351Z,5.32
2019-03-25T03:26:24.256Z,5.35
2019-03-25T03:28:54.180Z,5.24
2019-03-25T03:31:24.062Z,5.24
2019-03-25T03:33:54.024Z,4.91
2019-03-25T03:36:23.977Z,4.95
2019-03-25T03:38:53.883Z,4.95
2019-03-25T03:41:23.877Z,4.96
2019-03-25T03:43:53.773Z,4.74
2019-03-25T03:46:23.711Z,4.74
2019-03-25T03:48:53.656Z,4.56
2019-03-25T03:51:23.776Z,4.45
2019-03-25T03:53:53.689Z,4.27
2019-03-25T03:56:24.692Z,4.18
2019-03-25T03:58:54.678Z,4.13
2019-03-25T04:01:24.599Z,4.23
2019-03-25T04:03:54.476Z,4.22
2019-03-25T04:06:24.348Z,4.13
2019-03-25T04:08:54.239Z,4.04
2019-03-25T04:11:24.132Z,4.03
2019-03-25T04:13:54.094Z,4.07
2019-03-25T04:16:24.039Z,3.99
2019-03-25T04:18:54.028Z,3.92
2019-03-25T04:21:23.971Z,4.00
2019-03-25T04:23:53.857Z,4.10
2019-03-25T04:26:29.185Z,4.06
2019-03-25T04:28:55.524Z,4.10
2019-03-25T04:31:25.435Z,4.26
2019-03-25T04:33:55.347Z,4.21
2019-03-25T04:36:25.234Z,4.36
2019-03-25T04:38:55.154Z,4.65
2019-03-25T04:41:25.076Z,4.98
2019-03-25T04:43:55.026Z,5.32
2019-03-25T04:46:24.918Z,5.32
2019-03-25T04:48:54.829Z,5.66
2019-03-25T04:51:24.727Z,5.98
2019-03-25T04:53:54.672Z,6.16
2019-03-25T04:56:24.597Z,6.30
2019-03-25T04:58:54.488Z,6.43
2019-03-25T05:01:24.374Z,6.89
2019-03-25T05:03:54.299Z,7.11
2019-03-25T05:06:24.200Z,7.23
2019-03-25T05:08:54.085Z,7.31
2019-03-25T05:11:30.604Z,7.71
2019-03-25T05:13:55.694Z,8.05
2019-03-25T05:16:25.685Z,8.41
2019-03-25T05:18:55.593Z,8.57
2019-03-25T05:21:25.503Z,8.54
2019-03-25T05:23:55.737Z,8.58
2019-03-25T05:26:25.638Z,8.82
2019-03-25T05:28:55.675Z,8.91
2019-03-25T05:31:25.569Z,9.21
2019-03-25T05:33:55.466Z,9.51
2019-03-25T05:36:25.390Z,9.97
2019-03-25T05:38:55.331Z,10.07
2019-03-25T05:41:25.290Z,10.41
2019-03-25T05:43:55.235Z,10.28
2019-03-25T05:46:25.128Z,10.61
2019-03-25T05:48:55.199Z,10.16
2019-03-25T05:51:25.234Z,10.11
2019-03-25T05:53:55.200Z,10.35
2019-03-25T05:56:25.110Z,10.69
2019-03-25T05:58:55.018Z,11.14
2019-03-25T06:01:25.607Z,11.28
2019-03-25T06:03:55.502Z,11.63
2019-03-25T06:06:25.390Z,11.81
2019-03-25T06:08:55.711Z,11.72
2019-03-25T06:11:25.733Z,11.59
2019-03-25T06:13:55.732Z,11.25
2019-03-25T06:16:25.637Z,10.97
2019-03-25T06:18:55.582Z,11.29
2019-03-25T06:21:25.579Z,11.58
2019-03-25T06:23:55.491Z,11.28
2019-03-25T06:26:25.414Z,11.18
2019-03-25T06:28:55.977Z,10.39
2019-03-25T06:31:25.951Z,11.47
2019-03-25T06:33:55.852Z,11.63
2019-03-25T06:36:25.821Z,12.09
2019-03-25T06:38:56.124Z,12.18
2019-03-25T06:41:26.046Z,12.56
2019-03-25T06:43:56.338Z,12.67
2019-03-25T06:46:26.257Z,12.67
2019-03-25T06:48:56.238Z,12.67
2019-03-25T06:51:26.205Z,11.82
2019-03-25T06:53:56.341Z,12.74
2019-03-25T06:56:26.254Z,12.88
2019-03-25T06:58:56.396Z,13.33
2019-03-25T07:01:26.303Z,13.90
2019-03-25T07:03:56.216Z,13.63
2019-03-25T07:06:26.193Z,13.72
2019-03-25T07:08:56.167Z,14.07
2019-03-25T07:11:26.074Z,14.44
2019-03-25T07:13:56.467Z,14.04
2019-03-25T07:16:26.384Z,13.88
2019-03-25T07:18:56.392Z,14.06
2019-03-25T07:21:27.895Z,14.66
2019-03-25T07:23:58.260Z,14.72
2019-03-25T07:26:28.181Z,14.77
2019-03-25T07:28:58.603Z,14.86
2019-03-25T07:31:28.524Z,14.40
2019-03-25T07:33:58.434Z,14.60
2019-03-25T07:36:28.383Z,15.07
2019-03-25T07:39:00.202Z,14.72
2019-03-25T07:41:30.290Z,15.14
2019-03-25T07:44:00.250Z,15.90
2019-03-25T07:46:30.152Z,16.04
2019-03-25T07:49:00.136Z,15.74
2019-03-25T07:51:30.228Z,15.64
2019-03-25T07:54:00.269Z,15.44
2019-03-25T07:56:30.246Z,15.67
2019-03-25T07:59:00.298Z,15.88
2019-03-25T08:01:30.295Z,16.33
2019-03-25T08:04:00.179Z,16.69
2019-03-25T08:06:30.099Z,17.08
2019-03-25T08:09:03.942Z,17.26
2019-03-25T08:11:31.715Z,17.32
2019-03-25T08:14:01.625Z,17.48
2019-03-25T08:16:31.543Z,17.63
2019-03-25T08:19:01.448Z,17.84
2019-03-25T08:21:31.515Z,17.50
2019-03-25T08:24:01.486Z,17.32
2019-03-25T08:26:31.384Z,17.58
2019-03-25T08:29:01.348Z,17.39
2019-03-25T08:31:31.269Z,17.49
2019-03-25T08:34:01.185Z,17.31
2019-03-25T08:36:31.070Z,16.90
2019-03-25T08:39:01.190Z,17.09
2019-03-25T08:41:31.113Z,17.94
2019-03-25T08:44:01.082Z,18.30
2019-03-25T08:46:30.996Z,18.10
2019-03-25T08:49:00.976Z,18.83
2019-03-25T08:51:30.854Z,18.84
2019-03-25T08:54:00.824Z,18.97
2019-03-25T08:56:30.730Z,19.61
2019-03-25T08:59:00.619Z,19.45
2019-03-25T09:01:30.533Z,19.27
2019-03-25T09:04:00.495Z,18.69
2019-03-25T09:06:30.400Z,19.27
2019-03-25T09:09:00.673Z,19.56
2019-03-25T09:11:30.660Z,19.52
2019-03-25T09:14:00.728Z,19.65
2019-03-25T09:16:30.695Z,19.90
2019-03-25T09:19:00.623Z,18.88
2019-03-25T09:21:30.942Z,18.47
2019-03-25T09:24:00.889Z,19.19
2019-03-25T09:26:30.833Z,19.90
2019-03-25T09:29:00.806Z,20.34
2019-03-25T09:31:36.781Z,20.44
2019-03-25T09:34:02.536Z,20.27
2019-03-25T09:36:32.495Z,20.59
2019-03-25T09:39:03.165Z,20.34
2019-03-25T09:41:33.113Z,20.48
2019-03-25T09:44:04.236Z,20.55
2019-03-25T09:50:39.871Z,20.45
2019-03-25T09:53:09.923Z,21.20
2019-03-25T09:55:39.809Z,21.02
2019-03-25T09:58:09.721Z,21.25
2019-03-25T10:00:40.275Z,21.17
2019-03-25T10:03:10.271Z,21.49
2019-03-25T10:05:40.250Z,22.01
2019-03-25T10:08:10.167Z,21.87
2019-03-25T10:10:40.082Z,21.83
2019-03-25T10:13:09.975Z,21.46
2019-03-25T10:15:39.891Z,21.67
2019-03-25T10:18:09.821Z,22.14
2019-03-25T10:20:39.705Z,22.67
2019-03-25T10:23:09.660Z,23.01
2019-03-25T10:25:39.534Z,22.99
2019-03-25T10:28:09.672Z,23.05
2019-03-25T10:30:39.855Z,23.56
2019-03-25T10:33:09.797Z,23.22
2019-03-25T10:35:39.729Z,23.29
2019-03-25T10:38:19.155Z,23.15
2019-03-25T10:40:41.399Z,23.41
2019-03-25T10:43:11.329Z,22.99
2019-03-25T10:45:41.244Z,23.54
2019-03-25T10:48:11.266Z,23.50
2019-03-25T10:50:41.197Z,24.35
2019-03-25T10:53:11.069Z,24.39
2019-03-25T10:55:40.965Z,24.65
2019-03-25T10:58:10.846Z,24.49
2019-03-25T11:00:40.983Z,24.56
2019-03-25T11:03:10.843Z,24.44
2019-03-25T11:05:40.799Z,24.43
2019-03-25T11:08:10.697Z,24.11
2019-03-25T11:10:40.647Z,24.55
2019-03-25T11:13:10.548Z,24.95
2019-03-25T11:15:40.655Z,25.43
2019-03-25T11:18:10.646Z,25.35
2019-03-25T11:20:40.545Z,25.35
2019-03-25T11:23:10.598Z,25.03
2019-03-25T11:25:40.505Z,24.77
2019-03-25T11:28:12.237Z,24.97
2019-03-25T11:31:01.204Z,25.46
2019-03-25T11:33:31.120Z,26.01
2019-03-25T11:36:02.897Z,25.79
2019-03-25T11:38:33.129Z,26.22
2019-03-25T11:41:03.155Z,25.92
2019-03-25T11:43:33.076Z,26.09
2019-03-25T11:46:02.975Z,25.55
2019-03-25T11:48:32.897Z,25.42
2019-03-25T11:51:02.802Z,25.57
2019-03-25T11:53:32.734Z,25.78
2019-03-25T11:56:02.670Z,25.93
2019-03-25T11:58:32.568Z,25.93
2019-03-25T12:01:02.487Z,26.04
2019-03-25T12:03:32.410Z,25.73
2019-03-25T12:06:02.348Z,26.33
2019-03-25T12:08:33.194Z,26.49
2019-03-25T12:11:03.195Z,26.40
2019-03-25T12:13:33.261Z,26.38
2019-03-25T12:16:03.152Z,26.82
2019-03-25T12:18:33.511Z,26.99
2019-03-25T12:21:03.447Z,27.18
2019-03-25T12:23:33.408Z,27.01
2019-03-25T12:26:03.329Z,26.61
2019-03-25T12:28:33.260Z,26.16
2019-03-25T12:31:03.215Z,26.13
2019-03-25T12:33:33.231Z,26.26
2019-03-25T12:36:03.365Z,26.30
2019-03-25T12:38:33.388Z,25.36
2019-03-25T12:41:03.620Z,25.69
2019-03-25T12:43:33.569Z,25.41
2019-03-25T12:46:03.493Z,25.29
2019-03-25T12:48:33.437Z,25.38
2019-03-25T12:51:03.368Z,25.51
2019-03-25T12:53:33.300Z,25.37
2019-03-25T12:56:03.252Z,24.70
2019-03-25T12:58:33.274Z,23.65
2019-03-25T13:01:03.269Z,23.11
2019-03-25T13:03:33.209Z,23.15
2019-03-25T13:06:03.193Z,23.31
2019-03-25T13:08:33.664Z,23.27
2019-03-25T13:11:03.683Z,22.99
2019-03-25T13:13:33.623Z,23.04
2019-03-25T13:16:04.009Z,23.22
2019-03-25T13:18:33.882Z,23.18
2019-03-25T13:21:03.960Z,23.01
2019-03-25T13:23:33.873Z,22.88
2019-03-25T13:26:03.895Z,23.02
2019-03-25T13:28:33.852Z,23.03
2019-03-25T13:31:03.888Z,23.17
2019-03-25T13:33:33.871Z,23.22
2019-03-25T13:36:04.289Z,23.20
2019-03-25T13:38:34.201Z,23.00
2019-03-25T13:41:04.210Z,22.47
2019-03-25T13:43:34.163Z,22.29
2019-03-25T13:46:05.586Z,22.31
2019-03-25T13:48:35.700Z,22.33
2019-03-25T13:51:05.723Z,22.24
2019-03-25T13:53:35.677Z,22.19
2019-03-25T13:56:05.719Z,22.24
2019-03-25T13:58:35.685Z,22.09
2019-03-25T14:01:05.786Z,22.03
2019-03-25T14:03:36.163Z,21.96
2019-03-25T14:06:06.209Z,21.77
2019-03-25T14:08:36.137Z,21.69
2019-03-25T14:11:06.087Z,21.67
2019-03-25T14:13:36.109Z,21.83
2019-03-25T14:16:06.029Z,22.01
2019-03-25T14:18:35.936Z,22.14
2019-03-25T14:21:05.905Z,22.17
2019-03-25T14:23:35.892Z,22.12
2019-03-25T14:26:05.852Z,22.12
2019-03-25T14:28:37.019Z,21.96
2019-03-25T14:31:06.964Z,22.02
2019-03-25T14:33:37.014Z,21.93
2019-03-25T14:36:06.945Z,21.92
2019-03-25T14:38:36.877Z,22.02
2019-03-25T14:41:06.833Z,22.13
2019-03-25T14:43:36.805Z,22.27
2019-03-25T14:46:06.733Z,22.00
2019-03-25T14:48:36.661Z,21.85
2019-03-25T14:51:06.650Z,21.80
2019-03-25T14:53:44.801Z,21.79
2019-03-25T14:56:08.932Z,21.62
2019-03-25T14:58:38.893Z,21.48
2019-03-25T15:01:08.874Z,21.48
2019-03-25T15:03:38.869Z,21.50
2019-03-25T15:06:08.821Z,21.47
2019-03-25T15:08:38.729Z,21.48
2019-03-25T15:11:08.671Z,21.51
2019-03-25T15:13:38.680Z,21.49
2019-03-25T15:16:08.580Z,21.45
2019-03-25T15:18:38.566Z,21.42
2019-03-25T15:21:08.554Z,21.36
2019-03-25T15:23:38.573Z,21.34
2019-03-25T15:26:08.898Z,21.21
2019-03-25T15:28:39.792Z,21.21
2019-03-25T15:31:09.777Z,21.21
2019-03-25T15:33:39.803Z,21.18
2019-03-25T15:36:09.755Z,21.16
2019-03-25T15:38:39.766Z,21.14
2019-03-25T15:41:09.706Z,21.14
2019-03-25T15:43:39.735Z,21.07
2019-03-25T15:46:09.661Z,21.04
2019-03-25T15:48:39.644Z,20.99
2019-03-25T15:51:09.654Z,20.87
2019-03-25T15:53:39.927Z,20.85
2019-03-25T15:56:09.962Z,20.83
2019-03-25T15:58:39.944Z,20.82
2019-03-25T16:01:10.514Z,20.75
2019-03-25T16:03:40.564Z,20.72
2019-03-25T16:06:10.594Z,17.85
2019-03-25T16:08:41.951Z,20.70
2019-03-25T16:11:12.018Z,20.56
2019-03-25T16:13:42.179Z,20.54
2019-03-25T16:16:14.286Z,20.45
2019-03-25T16:18:47.107Z,20.38
2019-03-25T16:21:17.242Z,20.29
2019-03-25T16:23:47.226Z,20.20
2019-03-25T16:26:18.349Z,20.11
2019-03-25T16:28:49.047Z,20.01
2019-03-25T16:31:19.140Z,19.90
2019-03-25T16:33:49.152Z,19.82
2019-03-25T16:36:20.104Z,19.71
2019-03-25T16:38:50.157Z,19.63
2019-03-25T16:41:20.092Z,19.52
2019-03-25T16:43:50.412Z,19.43
2019-03-25T16:46:20.738Z,19.39
2019-03-25T16:48:50.662Z,19.35
2019-03-25T16:51:20.657Z,19.29
2019-03-25T16:53:50.624Z,19.17
2019-03-25T16:56:20.613Z,19.18
2019-03-25T16:58:50.548Z,19.11
2019-03-25T17:01:20.791Z,19.05
2019-03-25T17:03:52.197Z,19.03
2019-03-25T17:06:22.147Z,19.09
2019-03-25T17:08:52.246Z,19.11
2019-03-25T17:11:22.250Z,19.02
2019-03-25T17:13:52.183Z,18.98
2019-03-25T17:16:22.208Z,17.37
2019-03-25T17:18:52.252Z,18.78
2019-03-25T17:21:22.306Z,17.83
2019-03-25T17:23:52.556Z,18.59
2019-03-25T17:26:22.559Z,18.51
2019-03-25T17:28:52.707Z,18.43
2019-03-25T17:31:23.632Z,18.25
2019-03-25T17:33:53.968Z,18.15
2019-03-25T17:36:24.347Z,18.09
2019-03-25T17:38:54.410Z,18.06
2019-03-25T17:41:24.557Z,18.00
2019-03-25T17:43:54.658Z,17.89
2019-03-25T17:46:24.728Z,17.77
2019-03-25T17:48:54.760Z,17.66
2019-03-25T17:51:24.871Z,17.54
2019-03-25T17:54:01.064Z,17.47
2019-03-25T17:56:31.192Z,17.40
2019-03-25T17:59:01.504Z,17.27
2019-03-25T18:01:39.056Z,17.18
2019-03-25T18:04:09.046Z,17.17
2019-03-25T18:06:40.194Z,17.14
2019-03-25T18:09:10.992Z,17.11
2019-03-25T18:11:41.147Z,17.01
2019-03-25T18:14:11.186Z,16.90
2019-03-25T18:16:42.109Z,16.80
2019-03-25T18:19:12.917Z,16.72
2019-03-25T18:21:43.806Z,16.71
2019-03-25T18:24:13.771Z,16.73
2019-03-25T18:26:43.744Z,16.69
2019-03-25T18:29:14.164Z,16.64
2019-03-25T18:31:44.593Z,16.57
2019-03-25T18:34:14.560Z,16.50
2019-03-25T18:36:47.997Z,16.40
2019-03-25T18:39:18.018Z,16.29
2019-03-25T18:41:48.081Z,16.18
2019-03-25T18:44:18.024Z,16.11
2019-03-25T18:46:48.905Z,15.98
2019-03-25T18:49:19.134Z,15.85
2019-03-25T18:51:49.226Z,15.68
2019-03-25T18:54:19.207Z,15.57
2019-03-25T18:56:51.291Z,15.49
2019-03-25T18:59:23.101Z,15.41
2019-03-25T19:01:54.787Z,15.27
2019-03-25T19:04:27.285Z,15.21
2019-03-25T19:06:58.466Z,15.19
2019-03-25T19:09:28.520Z,15.04
2019-03-25T19:11:58.541Z,14.96
2019-03-25T19:14:29.536Z,14.93
2019-03-25T19:16:59.646Z,14.91
2019-03-25T19:19:32.725Z,14.86
2019-03-25T19:22:05.206Z,14.77
2019-03-25T19:24:34.653Z,14.72
2019-03-25T19:27:05.551Z,14.73
2019-03-25T19:29:35.670Z,14.71
2019-03-25T19:32:06.937Z,14.67
2019-03-25T19:34:37.293Z,14.63
2019-03-25T19:37:07.360Z,14.58
2019-03-25T19:39:37.559Z,14.50
2019-03-25T19:42:09.490Z,14.43
2019-03-25T19:44:39.781Z,14.44
2019-03-25T19:47:09.811Z,14.40
2019-03-25T19:49:39.780Z,14.35
2019-03-25T19:52:09.745Z,14.30
2019-03-25T19:54:39.689Z,14.14
2019-03-25T19:57:09.713Z,13.97
2019-03-25T19:59:40.188Z,13.85
2019-03-25T20:02:18.825Z,13.79
2019-03-25T20:04:41.955Z,13.74
2019-03-25T20:07:12.022Z,13.72
2019-03-25T20:09:42.587Z,13.74
2019-03-25T20:12:12.749Z,13.73
2019-03-25T20:14:42.882Z,13.74
2019-03-25T20:17:12.936Z,13.78
2019-03-25T20:19:43.261Z,13.65
2019-03-25T20:22:13.210Z,13.51
2019-03-25T20:24:43.165Z,13.48
2019-03-25T20:27:13.079Z,13.43
2019-03-25T20:29:43.105Z,13.44
2019-03-25T20:32:13.141Z,13.45
2019-03-25T20:34:43.051Z,13.38
2019-03-25T20:37:13.107Z,13.33
2019-03-25T20:39:43.237Z,13.29
2019-03-25T20:42:13.198Z,13.24
2019-03-25T20:44:43.165Z,13.25
2019-03-25T20:47:13.246Z,13.29
2019-03-25T20:49:43.267Z,13.26
2019-03-25T20:52:13.346Z,13.24
2019-03-25T20:54:43.464Z,13.19
2019-03-25T20:57:13.511Z,13.15
2019-03-25T20:59:43.678Z,13.10
2019-03-25T21:02:13.904Z,13.04
2019-03-25T21:04:44.409Z,12.98
2019-03-25T21:07:15.350Z,12.96
2019-03-25T21:09:45.590Z,12.95
2019-03-25T21:12:15.713Z,12.95
2019-03-25T21:14:45.753Z,13.00
2019-03-25T21:17:15.833Z,12.98
2019-03-25T21:19:45.962Z,12.97
2019-03-25T21:22:15.930Z,12.96
2019-03-25T21:24:46.116Z,12.93
2019-03-25T21:27:16.238Z,12.89
2019-03-25T21:29:46.349Z,12.87
2019-03-25T21:32:16.546Z,12.81
2019-03-25T21:34:49.680Z,12.83
2019-03-25T21:37:19.852Z,12.80
2019-03-25T21:39:49.750Z,12.78
2019-03-25T21:42:19.848Z,12.76
2019-03-25T21:44:50.076Z,12.70
2019-03-25T21:47:20.209Z,12.61
2019-03-25T21:49:50.356Z,12.57
2019-03-25T21:52:20.417Z,12.56
2019-03-25T21:54:50.636Z,12.51
2019-03-25T21:57:20.634Z,12.45
2019-03-25T21:59:50.707Z,12.44
2019-03-25T22:02:21.204Z,12.47
2019-03-25T22:04:51.214Z,12.56
2019-03-25T22:07:21.267Z,12.66
2019-03-25T22:09:51.533Z,12.72
2019-03-25T22:12:21.503Z,12.73
2019-03-25T22:14:51.507Z,12.71
2019-03-25T22:17:21.500Z,12.78
2019-03-25T22:19:51.575Z,12.82
2019-03-25T22:22:22.713Z,12.78
2019-03-25T22:24:52.738Z,12.70
2019-03-25T22:27:22.828Z,12.61
2019-03-25T22:29:52.786Z,12.58
2019-03-25T22:32:22.870Z,12.57
2019-03-25T22:34:52.909Z,12.45
2019-03-25T22:37:22.854Z,12.54
2019-03-25T22:39:52.854Z,12.53
2019-03-25T22:42:22.985Z,12.03
2019-03-25T22:44:53.023Z,12.28
2019-03-25T22:47:22.972Z,12.56
2019-03-25T22:49:53.907Z,12.84
2019-03-25T22:52:24.382Z,12.56
2019-03-25T22:54:54.408Z,12.43
2019-03-25T22:57:24.423Z,12.35
2019-03-25T22:59:54.450Z,12.30
2019-03-25T23:02:25.071Z,12.33
2019-03-25T23:04:56.083Z,12.07
2019-03-25T23:07:26.247Z,11.89
2019-03-25T23:09:56.568Z,11.86
2019-03-25T23:12:26.715Z,11.68
2019-03-25T23:14:56.748Z,11.50
2019-03-25T23:17:26.778Z,11.38
2019-03-25T23:19:56.790Z,11.13
2019-03-25T23:22:26.852Z,11.08
2019-03-25T23:24:56.853Z,10.97
2019-03-25T23:27:26.817Z,10.95
2019-03-25T23:29:56.812Z,10.94
2019-03-25T23:32:27.778Z,10.94
2019-03-25T23:34:57.834Z,10.94
2019-03-25T23:37:28.293Z,10.94
2019-03-25T23:39:58.625Z,10.92
2019-03-25T23:42:28.598Z,10.81
2019-03-25T23:44:58.601Z,10.80
2019-03-25T23:47:28.622Z,10.74
2019-03-25T23:49:58.782Z,10.73
2019-03-25T23:52:28.715Z,10.71
2019-03-25T23:54:58.760Z,10.69
2019-03-25T23:57:28.793Z,10.67
2019-03-25T23:59:58.735Z,10.57
